Time;durP1;ratioP1;P1;durP2;ratioP2;P2;SDS_P1;SDS_P2;PMS_P1;PMS_P2;Temp;Humidity;BMP_temperature;BMP_pressure;BME280_temperature;BME280_humidity;BME280_pressure;Samples;Min_cycle;Max_cycle;Signal;HPM_P1;HPM_P2
2024/03/16 00:02:16;;;;;;;17.25;6.47;;;6.00;99.90;;;;;;5028905;28;20040;-74
2024/03/16 00:04:43;;;;;;;12.73;4.20;;;6.00;99.90;;;;;;5028763;28;20310;-73
2024/03/16 00:07:12;;;;;;;10.55;4.05;;;6.00;99.90;;;;;;5028711;28;20133;-75
2024/03/16 00:09:38;;;;;;;10.33;4.67;;;5.90;99.90;;;;;;5028719;28;20025;-75
2024/03/16 00:12:05;;;;;;;10.77;4.40;;;5.60;99.90;;;;;;5028864;28;20402;-75
2024/03/16 00:14:31;;;;;;;20.35;5.63;;;5.40;99.90;;;;;;5012123;28;20049;-74
2024/03/16 00:16:58;;;;;;;18.23;6.50;;;5.50;99.90;;;;;;5028619;28;20075;-75
2024/03/16 00:19:24;;;;;;;13.10;4.53;;;5.50;99.90;;;;;;5044992;28;20041;-75
2024/03/16 00:21:50;;;;;;;18.80;5.88;;;5.70;99.90;;;;;;5028658;28;20067;-75
2024/03/16 00:24:16;;;;;;;32.88;10.32;;;5.70;99.90;;;;;;5012109;28;20031;-74
2024/03/16 00:26:42;;;;;;;13.02;6.13;;;5.70;99.90;;;;;;5045402;28;20045;-74
2024/03/16 00:29:07;;;;;;;16.55;5.78;;;5.70;99.90;;;;;;5045740;28;20030;-74
2024/03/16 00:31:36;;;;;;;15.52;5.43;;;5.70;99.90;;;;;;5012029;28;20097;-73
2024/03/16 00:34:05;;;;;;;14.15;5.35;;;5.60;99.90;;;;;;5028449;28;20018;-74
2024/03/16 00:36:31;;;;;;;12.82;5.07;;;5.50;99.90;;;;;;5028610;28;20092;-74
2024/03/16 00:38:57;;;;;;;18.42;5.60;;;5.40;99.90;;;;;;5028153;28;20052;-74
2024/03/16 00:41:23;;;;;;;16.52;6.05;;;5.40;99.90;;;;;;5028206;28;20052;-74
2024/03/16 00:43:49;;;;;;;17.63;6.05;;;5.50;99.90;;;;;;5028291;28;20347;-74
2024/03/16 00:46:15;;;;;;;15.25;4.60;;;5.60;99.90;;;;;;5027969;28;20299;-74
2024/03/16 00:48:40;;;;;;;14.20;4.68;;;5.60;99.90;;;;;;5028279;28;20021;-74
2024/03/16 00:51:06;;;;;;;16.80;5.32;;;5.60;99.90;;;;;;5045636;28;20065;-74
2024/03/16 00:53:32;;;;;;;15.70;5.47;;;5.60;99.90;;;;;;5045624;28;20033;-74
2024/03/16 00:55:58;;;;;;;12.77;4.95;;;5.60;99.90;;;;;;5011521;28;20100;-74
2024/03/16 00:58:24;;;;;;;12.27;4.53;;;5.40;99.90;;;;;;5011527;28;20018;-74
2024/03/16 01:00:51;;;;;;;21.25;7.10;;;5.20;99.90;;;;;;5027977;28;20075;-73
2024/03/16 01:03:17;;;;;;;19.67;6.25;;;5.30;99.90;;;;;;5045345;28;20030;-74
2024/03/16 01:05:44;;;;;;;21.83;6.13;;;5.40;99.90;;;;;;5011424;28;20341;-74
2024/03/16 01:08:09;;;;;;;15.20;5.32;;;5.50;99.90;;;;;;5027937;28;20029;-75
2024/03/16 01:10:35;;;;;;;51.42;21.80;;;5.50;99.90;;;;;;5011400;28;20318;-75
2024/03/16 01:13:01;;;;;;;221.73;61.60;;;5.50;99.90;;;;;;5011664;28;20080;-75
2024/03/16 01:15:26;;;;;;;38.33;13.85;;;5.40;99.90;;;;;;5031991;28;20041;-74
2024/03/16 01:17:52;;;;;;;27.58;12.23;;;5.40;99.90;;;;;;5015406;28;20033;-74
2024/03/16 01:20:18;;;;;;;23.73;8.40;;;5.30;99.90;;;;;;5032056;28;20225;-74
2024/03/16 01:22:43;;;;;;;22.55;7.55;;;5.10;99.90;;;;;;5031749;28;20136;-73
2024/03/16 01:25:09;;;;;;;40.80;10.70;;;5.10;99.90;;;;;;5031611;28;20091;-72
2024/03/16 01:27:34;;;;;;;17.42;7.15;;;5.10;99.90;;;;;;5048793;28;20310;-73
2024/03/16 01:30:01;;;;;;;18.13;6.55;;;5.10;99.90;;;;;;5049234;28;20030;-73
2024/03/16 01:32:26;;;;;;;18.17;6.53;;;5.20;99.90;;;;;;5032093;28;20040;-73
2024/03/16 01:34:52;;;;;;;15.40;4.72;;;5.30;99.90;;;;;;5049086;28;20354;-73
2024/03/16 01:37:18;;;;;;;15.00;5.55;;;5.10;99.90;;;;;;5048952;28;20064;-73
2024/03/16 01:39:49;;;;;;;17.50;5.95;;;4.90;99.90;;;;;;5049113;28;20139;-73
2024/03/16 01:42:14;;;;;;;34.22;12.80;;;4.80;99.90;;;;;;5047780;28;20029;-73
2024/03/16 01:44:42;;;;;;;19.27;7.20;;;4.90;99.90;;;;;;5048811;28;20122;-73
2024/03/16 01:47:08;;;;;;;15.65;5.32;;;5.00;99.90;;;;;;5031336;28;20049;-73
2024/03/16 01:49:34;;;;;;;13.00;4.40;;;5.00;99.90;;;;;;5015068;28;20021;-74
2024/03/16 01:51:59;;;;;;;12.15;4.65;;;5.00;99.90;;;;;;5031270;28;20037;-73
2024/03/16 01:54:25;;;;;;;10.80;3.65;;;5.10;99.90;;;;;;5031141;28;20029;-73
2024/03/16 01:56:51;;;;;;;8.90;3.15;;;5.00;99.90;;;;;;5031213;28;20334;-74
2024/03/16 01:59:16;;;;;;;10.35;3.25;;;5.00;99.90;;;;;;5031060;28;20347;-73
2024/03/16 02:01:42;;;;;;;6.88;2.63;;;5.00;99.90;;;;;;5031226;28;20034;-74
2024/03/16 02:04:07;;;;;;;9.15;2.92;;;5.00;99.90;;;;;;5014596;28;20018;-73
2024/03/16 02:06:33;;;;;;;6.97;2.90;;;5.00;99.90;;;;;;5030794;28;20091;-73
2024/03/16 02:09:00;;;;;;;6.35;2.42;;;4.90;99.90;;;;;;5030927;28;20061;-74
2024/03/16 02:11:25;;;;;;;6.95;3.10;;;4.80;99.90;;;;;;5014780;28;20291;-75
2024/03/16 02:13:51;;;;;;;6.85;2.60;;;4.70;99.90;;;;;;5030758;28;20030;-73
2024/03/16 02:16:17;;;;;;;7.55;2.53;;;4.60;99.90;;;;;;5030719;28;20030;-75
2024/03/16 02:18:43;;;;;;;8.90;2.83;;;4.60;99.90;;;;;;5030732;28;20021;-75
2024/03/16 02:21:11;;;;;;;7.82;2.38;;;4.50;99.90;;;;;;5030718;28;20037;-74
2024/03/16 02:23:39;;;;;;;8.15;2.35;;;4.40;99.90;;;;;;5030944;28;20044;-75
2024/03/16 02:26:05;;;;;;;8.50;2.50;;;4.50;99.90;;;;;;5030878;28;20322;-74
2024/03/16 02:28:31;;;;;;;7.53;2.33;;;4.50;99.90;;;;;;5047694;28;20104;-74
2024/03/16 02:30:56;;;;;;;5.40;2.20;;;4.50;99.90;;;;;;5013937;28;20057;-75
2024/03/16 02:33:22;;;;;;;7.55;2.45;;;4.50;99.90;;;;;;5030329;28;20318;-75
2024/03/16 02:35:47;;;;;;;9.13;2.75;;;4.50;99.90;;;;;;5030546;28;20045;-75
2024/03/16 02:38:14;;;;;;;8.88;2.70;;;4.50;99.90;;;;;;5013856;28;20040;-75
2024/03/16 02:40:42;;;;;;;7.28;2.75;;;4.50;99.90;;;;;;5013981;28;20156;-75
2024/03/16 02:43:09;;;;;;;8.85;2.75;;;4.50;99.90;;;;;;5030483;28;20067;-75
2024/03/16 02:45:35;;;;;;;8.35;2.20;;;4.50;99.90;;;;;;5030398;28;20342;-74
2024/03/16 02:48:01;;;;;;;7.63;2.47;;;4.50;99.90;;;;;;5030017;28;20034;-74
2024/03/16 02:50:27;;;;;;;8.52;2.83;;;4.50;99.90;;;;;;5030307;28;20375;-74
2024/03/16 02:52:53;;;;;;;9.50;2.63;;;4.40;99.90;;;;;;5030148;28;20025;-74
2024/03/16 02:55:19;;;;;;;6.15;2.33;;;4.30;99.90;;;;;;5047531;28;20021;-74
2024/03/16 02:57:44;;;;;;;9.43;2.60;;;4.20;99.90;;;;;;5030253;28;20115;-74
2024/03/16 03:00:11;;;;;;;7.90;2.45;;;4.30;99.90;;;;;;5029895;28;20034;-74
2024/03/16 03:02:37;;;;;;;8.68;2.78;;;4.30;99.90;;;;;;5029986;28;20183;-75
2024/03/16 03:05:04;;;;;;;5.72;2.42;;;4.30;99.90;;;;;;5029769;28;20346;-74
2024/03/16 03:07:30;;;;;;;7.60;2.47;;;4.30;99.90;;;;;;5029962;28;20089;-74
2024/03/16 03:09:56;;;;;;;8.52;2.70;;;4.30;99.90;;;;;;5013420;28;20021;-74
2024/03/16 03:12:23;;;;;;;6.00;2.47;;;4.20;99.90;;;;;;5046991;28;20034;-74
2024/03/16 03:14:48;;;;;;;8.38;2.85;;;4.20;99.90;;;;;;5047069;28;20031;-74
2024/03/16 03:17:14;;;;;;;8.00;2.70;;;4.20;99.90;;;;;;5047088;28;20029;-74
2024/03/16 03:19:40;;;;;;;7.93;2.58;;;4.20;99.90;;;;;;5013363;28;20033;-74
2024/03/16 03:22:06;;;;;;;8.00;2.70;;;4.10;99.90;;;;;;5012871;28;20040;-74
2024/03/16 03:24:31;;;;;;;8.98;2.90;;;4.20;99.90;;;;;;5045859;28;20025;-74
2024/03/16 03:26:58;;;;;;;6.22;2.97;;;4.10;99.90;;;;;;5013030;28;20104;-75
2024/03/16 03:29:23;;;;;;;8.77;3.38;;;4.10;99.90;;;;;;5013352;28;20033;-74
2024/03/16 03:31:49;;;;;;;9.18;2.60;;;4.10;99.90;;;;;;5029479;28;20021;-74
2024/03/16 03:34:15;;;;;;;11.45;2.83;;;4.00;99.90;;;;;;5029439;28;20072;-74
2024/03/16 03:36:44;;;;;;;8.68;2.53;;;4.00;99.90;;;;;;5045011;28;20029;-74
2024/03/16 03:39:14;;;;;;;6.97;2.47;;;4.00;99.90;;;;;;5046679;28;20147;-74
2024/03/16 03:41:40;;;;;;;8.80;3.42;;;4.00;99.90;;;;;;5046199;28;20029;-75
2024/03/16 03:44:20;;;;;;;4.85;2.70;;;4.10;99.90;;;;;;5012808;28;20033;-74
2024/03/16 03:46:54;;;;;;;7.45;2.65;;;3.80;99.90;;;;;;5014364;28;20095;-74
2024/03/16 03:49:26;;;;;;;8.38;2.92;;;3.70;99.90;;;;;;5030279;28;20036;-75
2024/03/16 03:51:57;;;;;;;9.75;2.75;;;3.80;99.90;;;;;;5013165;28;20022;-74
2024/03/16 03:54:23;;;;;;;7.13;3.10;;;3.90;99.90;;;;;;5029131;28;20036;-74
2024/03/16 03:56:48;;;;;;;7.82;2.83;;;3.80;99.90;;;;;;5012575;28;20287;-74
2024/03/16 03:59:14;;;;;;;9.32;2.97;;;3.90;99.90;;;;;;5028850;28;20041;-74
2024/03/16 04:01:40;;;;;;;8.93;2.65;;;3.70;99.90;;;;;;5028926;28;20083;-74
2024/03/16 04:04:05;;;;;;;5.50;2.60;;;3.40;99.90;;;;;;5012492;28;20180;-74
2024/03/16 04:06:31;;;;;;;10.05;3.13;;;3.30;99.90;;;;;;5045916;28;20029;-74
2024/03/16 04:08:57;;;;;;;7.90;2.83;;;3.50;99.90;;;;;;5045904;28;20049;-74
2024/03/16 04:11:23;;;;;;;9.30;3.13;;;3.60;99.90;;;;;;5028522;28;20021;-75
2024/03/16 04:13:48;;;;;;;6.20;2.90;;;3.70;99.90;;;;;;5028818;28;20049;-74
2024/03/16 04:16:14;;;;;;;6.82;2.40;;;3.70;99.90;;;;;;5011968;28;20033;-74
2024/03/16 04:18:40;;;;;;;8.23;3.30;;;3.50;99.90;;;;;;5028557;28;20026;-74
2024/03/16 04:21:07;;;;;;;7.90;3.67;;;3.40;99.90;;;;;;5028619;28;20305;-75
2024/03/16 04:23:33;;;;;;;11.13;3.25;;;3.50;99.90;;;;;;5028601;28;20160;-75
2024/03/16 04:25:58;;;;;;;12.68;3.03;;;3.60;99.90;;;;;;5028514;28;20282;-75
2024/03/16 04:28:24;;;;;;;11.90;3.97;;;3.60;99.90;;;;;;5028500;28;20112;-74
2024/03/16 04:30:50;;;;;;;12.10;3.10;;;3.60;99.90;;;;;;5028385;28;20052;-74
2024/03/16 04:33:15;;;;;;;10.85;3.05;;;3.70;99.90;;;;;;5028397;28;20055;-74
2024/03/16 04:35:41;;;;;;;7.13;3.00;;;3.50;99.90;;;;;;5028624;28;20025;-74
2024/03/16 04:38:10;;;;;;;14.18;4.07;;;3.40;99.90;;;;;;5028398;28;20026;-75
2024/03/16 04:40:36;;;;;;;12.80;3.92;;;3.40;99.90;;;;;;5028528;28;20309;-74
2024/03/16 04:43:01;;;;;;;14.00;5.65;;;3.50;99.90;;;;;;5011541;28;20025;-74
2024/03/16 04:45:27;;;;;;;14.05;4.85;;;3.50;99.90;;;;;;5028148;28;20299;-74
2024/03/16 04:47:53;;;;;;;10.57;4.82;;;3.60;99.90;;;;;;5027220;28;20053;-74
2024/03/16 04:50:18;;;;;;;14.60;5.30;;;3.50;99.90;;;;;;5028004;28;20025;-74
2024/03/16 04:52:44;;;;;;;13.48;3.85;;;3.30;99.90;;;;;;5011897;28;20033;-74
2024/03/16 04:55:09;;;;;;;11.10;4.30;;;3.30;99.90;;;;;;5028089;28;20096;-74
2024/03/16 04:57:35;;;;;;;14.70;4.45;;;3.30;99.90;;;;;;5028001;28;20032;-75
2024/03/16 05:00:01;;;;;;;11.20;4.60;;;3.40;99.90;;;;;;5028079;28;20064;-74
2024/03/16 05:02:26;;;;;;;12.15;3.95;;;3.40;99.90;;;;;;5045429;28;20033;-74
2024/03/16 05:04:52;;;;;;;9.40;4.05;;;3.50;99.90;;;;;;5045182;28;20093;-75
2024/03/16 05:07:18;;;;;;;10.70;4.05;;;3.40;99.90;;;;;;5027967;28;20052;-74
2024/03/16 05:09:44;;;;;;;9.35;4.07;;;3.30;99.90;;;;;;5028328;28;20029;-74
2024/03/16 05:12:10;;;;;;;9.38;3.80;;;3.30;99.90;;;;;;5011401;28;20030;-74
2024/03/16 05:14:35;;;;;;;8.65;3.40;;;3.30;99.90;;;;;;5045172;28;20313;-74
2024/03/16 05:17:01;;;;;;;9.75;3.70;;;3.20;99.90;;;;;;5027869;28;20076;-75
2024/03/16 05:19:27;;;;;;;11.70;3.90;;;3.30;99.90;;;;;;5027741;28;20029;-74
2024/03/16 05:21:52;;;;;;;20.80;5.13;;;3.30;99.90;;;;;;5045286;28;20029;-74
2024/03/16 05:24:18;;;;;;;10.20;4.65;;;3.30;99.90;;;;;;5011273;28;20033;-74
2024/03/16 05:26:44;;;;;;;10.88;4.45;;;3.30;99.90;;;;;;5027741;28;20029;-74
2024/03/16 05:29:10;;;;;;;14.40;4.68;;;3.20;99.90;;;;;;5011459;28;20031;-74
2024/03/16 05:31:37;;;;;;;11.30;4.40;;;3.30;99.90;;;;;;5027883;28;20411;-74
2024/03/16 05:34:03;;;;;;;11.07;5.07;;;3.30;99.90;;;;;;5027982;28;20045;-74
2024/03/16 05:36:29;;;;;;;11.82;5.50;;;3.30;99.90;;;;;;5027656;28;20041;-75
2024/03/16 05:38:54;;;;;;;22.70;5.03;;;3.30;99.90;;;;;;5011200;28;20033;-75
2024/03/16 05:41:20;;;;;;;12.73;5.05;;;3.30;99.90;;;;;;5011240;28;20116;-75
2024/03/16 05:43:46;;;;;;;10.20;4.47;;;3.20;99.90;;;;;;5027675;28;20039;-75
2024/03/16 05:46:12;;;;;;;9.95;4.32;;;3.20;99.90;;;;;;5011318;28;20083;-75
2024/03/16 05:48:37;;;;;;;9.35;4.45;;;3.10;99.90;;;;;;5027573;28;20025;-75
2024/03/16 05:51:05;;;;;;;11.43;4.07;;;3.10;99.90;;;;;;5027648;28;20056;-75
2024/03/16 05:53:30;;;;;;;10.35;4.15;;;3.00;99.90;;;;;;5027653;28;20165;-75
2024/03/16 05:55:56;;;;;;;10.32;3.95;;;3.00;99.90;;;;;;5011112;28;20040;-75
2024/03/16 05:58:22;;;;;;;10.75;3.53;;;3.00;99.90;;;;;;5044934;28;20222;-74
2024/03/16 06:00:48;;;;;;;9.73;4.10;;;3.00;99.90;;;;;;5030449;28;20034;-75
2024/03/16 06:03:14;;;;;;;7.22;3.28;;;3.00;99.90;;;;;;5031279;28;20021;-75
2024/03/16 06:05:41;;;;;;;7.10;3.40;;;3.00;99.90;;;;;;5030821;28;20087;-75
2024/03/16 06:08:07;;;;;;;8.10;3.35;;;3.10;99.90;;;;;;5031284;28;20025;-74
2024/03/16 06:10:33;;;;;;;8.10;4.30;;;3.00;99.90;;;;;;5014613;28;20017;-74
2024/03/16 06:12:59;;;;;;;7.93;3.45;;;3.00;99.90;;;;;;5030972;28;20053;-74
2024/03/16 06:15:25;;;;;;;9.73;3.42;;;3.00;99.90;;;;;;5031002;28;20202;-74
2024/03/16 06:17:51;;;;;;;10.77;4.18;;;3.00;99.90;;;;;;5014635;28;20100;-74
2024/03/16 06:20:17;;;;;;;8.50;4.05;;;3.10;99.90;;;;;;5030897;28;20075;-75
2024/03/16 06:22:44;;;;;;;9.38;3.50;;;3.10;99.90;;;;;;5014184;28;20096;-75
2024/03/16 06:25:12;;;;;;;8.27;4.18;;;3.10;99.90;;;;;;5030977;28;20018;-75
2024/03/16 06:27:49;;;;;;;9.10;4.30;;;3.10;99.90;;;;;;5031009;28;20029;-75
2024/03/16 06:30:18;;;;;;;7.78;3.47;;;3.10;99.90;;;;;;5032025;28;20298;-75
2024/03/16 06:33:05;;;;;;;9.57;3.47;;;3.10;99.90;;;;;;5047005;28;20029;-75
2024/03/16 06:35:32;;;;;;;8.68;3.78;;;3.20;99.90;;;;;;5048095;28;20291;-75
2024/03/16 06:37:58;;;;;;;9.45;3.83;;;3.20;99.90;;;;;;5030347;28;20025;-74
2024/03/16 06:40:25;;;;;;;12.20;5.07;;;3.20;99.90;;;;;;5030425;28;20022;-75
2024/03/16 06:42:50;;;;;;;10.75;3.95;;;3.20;99.90;;;;;;5030371;28;20032;-74
2024/03/16 06:45:16;;;;;;;8.90;3.95;;;3.20;99.90;;;;;;5030140;28;20246;-75
2024/03/16 06:47:42;;;;;;;9.82;4.00;;;3.20;99.90;;;;;;5029998;28;20099;-75
2024/03/16 06:50:07;;;;;;;9.00;3.38;;;3.20;99.90;;;;;;5030064;28;20028;-74
2024/03/16 06:52:33;;;;;;;8.10;3.67;;;3.20;99.90;;;;;;5013121;28;20029;-74
2024/03/16 06:54:59;;;;;;;6.28;3.10;;;3.30;99.90;;;;;;5013771;28;20100;-74
2024/03/16 06:57:25;;;;;;;7.80;3.40;;;3.40;99.90;;;;;;5030141;28;20021;-74
2024/03/16 06:59:51;;;;;;;6.63;2.90;;;3.40;99.90;;;;;;5013644;28;20041;-74
2024/03/16 07:02:17;;;;;;;5.30;2.72;;;3.50;99.90;;;;;;5029858;28;20323;-75
2024/03/16 07:04:42;;;;;;;7.60;3.10;;;3.80;99.90;;;;;;5029595;28;20026;-75
2024/03/16 07:07:08;;;;;;;10.15;3.45;;;4.10;99.90;;;;;;5029991;28;20025;-75
2024/03/16 07:09:34;;;;;;;6.88;2.80;;;4.50;99.90;;;;;;5047358;28;20040;-74
2024/03/16 07:11:59;;;;;;;5.70;3.05;;;4.80;99.90;;;;;;5046455;28;20067;-75
2024/03/16 07:14:25;;;;;;;6.45;2.83;;;5.10;99.90;;;;;;5029626;28;20083;-75
2024/03/16 07:16:51;;;;;;;9.00;5.07;;;5.40;99.90;;;;;;5029599;28;20040;-75
2024/03/16 07:19:18;;;;;;;26.40;16.60;;;5.60;99.90;;;;;;5029528;28;20021;-75
2024/03/16 07:21:43;;;;;;;7.60;3.33;;;5.80;99.90;;;;;;5029770;28;20060;-75
2024/03/16 07:24:12;;;;;;;7.38;3.03;;;5.90;99.90;;;;;;5029591;28;20034;-75
2024/03/16 07:26:37;;;;;;;10.10;3.60;;;6.10;99.90;;;;;;5046918;28;20037;-75
2024/03/16 07:29:03;;;;;;;10.18;3.08;;;6.30;99.90;;;;;;5046786;28;20089;-75
2024/03/16 07:31:29;;;;;;;6.38;2.90;;;6.50;99.90;;;;;;5029422;28;20063;-75
2024/03/16 07:33:54;;;;;;;8.00;3.72;;;6.70;99.90;;;;;;5012846;28;20025;-75
2024/03/16 07:36:20;;;;;;;7.22;3.05;;;6.90;99.90;;;;;;5029330;28;20098;-74
2024/03/16 07:38:46;;;;;;;6.80;3.60;;;6.80;99.90;;;;;;5029173;28;20227;-75
2024/03/16 07:41:11;;;;;;;5.38;3.17;;;7.30;99.90;;;;;;5012630;28;20025;-75
2024/03/16 07:43:37;;;;;;;6.50;2.90;;;7.70;99.90;;;;;;5029055;28;20052;-75
2024/03/16 07:46:09;;;;;;;5.10;2.50;;;8.30;99.90;;;;;;5028766;28;20108;-78
2024/03/16 07:48:35;;;;;;;6.60;4.13;;;8.40;99.90;;;;;;5027322;28;20032;-75
2024/03/16 07:51:04;;;;;;;5.47;2.67;;;8.40;99.90;;;;;;5046399;28;20059;-75
2024/03/16 07:53:31;;;;;;;5.07;2.30;;;8.50;99.90;;;;;;5046400;28;20164;-75
2024/03/16 07:55:58;;;;;;;4.50;1.73;;;8.40;99.90;;;;;;5029141;28;20052;-75
2024/03/16 07:58:24;;;;;;;5.50;2.17;;;8.20;99.90;;;;;;5012529;28;20027;-75
2024/03/16 08:00:50;;;;;;;5.13;2.25;;;7.90;99.90;;;;;;5028762;28;20044;-77
2024/03/16 08:03:16;;;;;;;5.55;2.15;;;7.80;99.90;;;;;;5028849;28;20033;-76
2024/03/16 08:05:42;;;;;;;7.70;3.15;;;7.60;99.90;;;;;;5045888;28;20021;-76
2024/03/16 08:08:07;;;;;;;5.95;2.50;;;7.40;99.90;;;;;;5028799;28;20378;-75
2024/03/16 08:10:33;;;;;;;8.38;3.67;;;7.30;99.90;;;;;;5046324;28;20031;-76
2024/03/16 08:12:59;;;;;;;6.20;2.45;;;7.30;99.90;;;;;;5028744;28;20044;-76
2024/03/16 08:15:24;;;;;;;6.88;3.13;;;7.20;99.90;;;;;;5028414;28;20044;-76
2024/03/16 08:17:56;;;;;;;32.15;9.82;;;7.20;99.90;;;;;;5044943;28;20056;-75
2024/03/16 08:20:22;;;;;;;7.88;3.47;;;7.20;99.90;;;;;;5029254;28;20087;-76
2024/03/16 08:22:48;;;;;;;5.45;2.85;;;7.30;99.90;;;;;;5045705;28;20218;-76
2024/03/16 08:25:14;;;;;;;5.50;2.63;;;7.40;99.90;;;;;;5028476;28;20056;-76
2024/03/16 08:27:40;;;;;;;7.68;4.20;;;7.40;99.90;;;;;;5011717;28;20044;-76
2024/03/16 08:30:06;;;;;;;16.67;9.57;;;7.30;99.90;;;;;;5011703;28;20108;-76
2024/03/16 08:32:32;;;;;;;23.02;12.07;;;7.40;99.90;;;;;;5011869;28;20033;-76
2024/03/16 08:34:58;;;;;;;26.83;13.57;;;7.40;99.90;;;;;;5011896;28;20171;-76
2024/03/16 08:37:24;;;;;;;34.28;16.75;;;7.90;99.90;;;;;;5028295;28;20033;-76
2024/03/16 08:39:49;;;;;;;56.88;26.00;;;9.40;99.90;;;;;;5045696;28;20037;-76
2024/03/16 08:42:15;;;;;;;74.22;34.92;;;10.70;99.90;;;;;;5028253;28;20029;-77
2024/03/16 08:44:41;;;;;;;70.10;32.60;;;12.10;99.90;;;;;;5028089;28;20041;-77
2024/03/16 08:47:06;;;;;;;36.97;18.35;;;12.00;99.90;;;;;;5027186;28;20055;-76
2024/03/16 08:49:32;;;;;;;22.45;11.20;;;11.80;99.90;;;;;;5028009;28;20022;-77
2024/03/16 08:51:59;;;;;;;21.08;9.50;;;11.70;99.90;;;;;;5045485;28;20048;-76
2024/03/16 08:54:24;;;;;;;16.05;7.88;;;11.50;99.90;;;;;;5027889;28;20029;-76
2024/03/16 08:56:54;;;;;;;14.65;6.32;;;11.20;99.90;;;;;;5045073;28;20029;-76
2024/03/16 08:59:19;;;;;;;10.57;5.63;;;11.10;99.90;;;;;;5027975;28;20025;-76
2024/03/16 09:01:45;;;;;;;8.70;4.00;;;10.90;99.90;;;;;;5027924;28;20160;-76
2024/03/16 09:04:12;;;;;;;9.65;4.72;;;10.90;99.90;;;;;;5027968;28;20033;-76
2024/03/16 09:06:40;;;;;;;6.03;2.30;;;10.80;99.90;;;;;;5027792;28;20022;-76
2024/03/16 09:09:10;;;;;;;5.65;2.30;;;10.80;99.90;;;;;;5028197;28;20021;-76
2024/03/16 09:11:38;;;;;;;6.60;1.85;;;10.80;99.90;;;;;;5028682;28;20099;-77
2024/03/16 09:14:05;;;;;;;3.88;1.80;;;10.70;99.90;;;;;;5045250;28;20018;-77
2024/03/16 09:16:36;;;;;;;3.25;1.55;;;10.60;99.90;;;;;;5027913;28;20329;-77
2024/03/16 09:19:02;;;;;;;6.07;1.60;;;10.70;99.90;;;;;;5028292;28;20029;-77
2024/03/16 09:21:28;;;;;;;5.38;1.70;;;10.70;99.90;;;;;;5011180;28;20025;-76
2024/03/16 09:23:54;;;;;;;3.88;1.40;;;10.50;99.90;;;;;;5011143;28;20048;-77
2024/03/16 09:26:20;;;;;;;3.45;1.40;;;10.60;99.90;;;;;;5044666;28;20100;-77
2024/03/16 09:28:46;;;;;;;3.20;1.52;;;10.60;99.90;;;;;;5044898;28;20017;-76
2024/03/16 09:31:11;;;;;;;3.05;1.40;;;10.50;99.90;;;;;;5027469;28;20071;-77
2024/03/16 09:33:37;;;;;;;6.30;1.50;;;10.50;99.90;;;;;;5011128;28;20030;-77
2024/03/16 09:36:04;;;;;;;5.57;1.33;;;10.30;99.90;;;;;;5014787;28;20035;-77
2024/03/16 09:38:32;;;;;;;4.22;1.33;;;10.10;99.90;;;;;;5031688;28;20087;-76
2024/03/16 09:40:58;;;;;;;4.30;2.13;;;10.00;99.90;;;;;;5031303;28;20040;-77
2024/03/16 09:43:24;;;;;;;4.15;1.33;;;10.00;99.90;;;;;;5031061;28;20198;-77
2024/03/16 09:45:50;;;;;;;4.15;1.30;;;9.90;99.90;;;;;;5030952;28;20121;-76
2024/03/16 09:48:15;;;;;;;4.32;1.40;;;9.70;99.90;;;;;;5015032;28;20068;-77
2024/03/16 09:50:45;;;;;;;8.70;6.05;;;9.80;99.90;;;;;;5031120;28;20017;-77
2024/03/16 09:53:14;;;;;;;4.18;1.50;;;9.80;99.90;;;;;;5048552;28;20216;-77
2024/03/16 09:55:40;;;;;;;3.65;1.40;;;9.90;99.90;;;;;;5014892;28;20262;-77
2024/03/16 09:58:07;;;;;;;4.05;1.25;;;9.90;99.90;;;;;;5031016;28;20051;-77
2024/03/16 10:00:35;;;;;;;7.07;1.85;;;9.90;99.90;;;;;;5031267;28;20037;-76
2024/03/16 10:03:01;;;;;;;3.53;1.65;;;9.90;99.90;;;;;;5030660;28;20025;-77
2024/03/16 10:05:27;;;;;;;3.90;1.50;;;10.00;99.90;;;;;;5030382;28;20079;-77
2024/03/16 10:07:53;;;;;;;6.47;3.03;;;10.10;99.90;;;;;;5030524;28;20029;-76
2024/03/16 10:10:19;;;;;;;5.35;1.73;;;10.10;99.90;;;;;;5030974;28;20293;-76
2024/03/16 10:12:44;;;;;;;4.78;1.60;;;10.10;99.90;;;;;;5030945;28;20068;-77
2024/03/16 10:15:31;;;;;;;5.30;1.80;;;10.10;99.90;;;;;;5030560;28;20251;-76
2024/03/16 10:17:58;;;;;;;5.07;1.90;;;10.10;99.90;;;;;;5047520;28;20033;-76
2024/03/16 10:20:27;;;;;;;3.58;1.58;;;10.10;99.90;;;;;;5030635;28;20037;-75
2024/03/16 10:22:54;;;;;;;3.20;1.17;;;10.00;99.90;;;;;;5030787;28;20037;-77
2024/03/16 10:25:22;;;;;;;4.85;1.50;;;9.80;99.90;;;;;;5030532;28;20036;-76
2024/03/16 10:27:47;;;;;;;2.35;1.15;;;9.70;99.90;;;;;;5014102;28;20030;-76
2024/03/16 10:30:15;;;;;;;3.53;1.40;;;9.70;99.90;;;;;;5013697;28;20044;-77
2024/03/16 10:32:46;;;;;;;2.85;1.40;;;9.70;99.90;;;;;;5030114;28;20175;-76
2024/03/16 10:35:15;;;;;;;2.75;1.25;;;9.60;99.90;;;;;;5030210;28;20033;-76
2024/03/16 10:37:47;;;;;;;4.05;2.00;;;9.60;99.90;;;;;;5047321;28;20037;-76
2024/03/16 10:40:13;;;;;;;4.78;2.30;;;9.50;99.90;;;;;;5013740;28;20124;-76
2024/03/16 10:42:44;;;;;;;3.50;1.65;;;9.60;99.90;;;;;;5030015;28;20268;-76
2024/03/16 10:45:24;;;;;;;8.20;1.48;;;9.60;99.90;;;;;;5013125;28;20034;-76
2024/03/16 10:47:53;;;;;;;7.25;2.17;;;9.60;99.90;;;;;;5030632;28;20072;-76
2024/03/16 10:50:27;;;;;;;7.00;3.70;;;9.60;99.90;;;;;;5013766;28;20034;-76
2024/03/16 10:52:53;;;;;;;7.80;3.08;;;9.60;99.90;;;;;;5030615;28;20037;-77
2024/03/16 10:55:22;;;;;;;11.38;8.77;;;9.60;99.90;;;;;;5013152;28;20083;-76
2024/03/16 10:57:52;;;;;;;7.72;3.05;;;9.60;99.90;;;;;;5030035;28;20027;-75
2024/03/16 11:00:29;;;;;;;4.35;2.58;;;9.70;99.90;;;;;;5029819;28;20033;-76
2024/03/16 11:03:08;;;;;;;13.30;10.85;;;9.70;99.90;;;;;;5030108;28;20314;-76
2024/03/16 11:05:39;;;;;;;7.28;4.35;;;9.80;99.90;;;;;;5029952;28;20036;-76
2024/03/16 11:08:13;;;;;;;10.07;5.25;;;9.80;99.90;;;;;;5029431;28;20307;-77
2024/03/16 11:10:40;;;;;;;20.88;17.50;;;9.80;99.90;;;;;;5046865;28;20181;-77
2024/03/16 11:13:21;;;;;;;7.13;2.97;;;9.70;99.90;;;;;;5046982;28;20036;-76
2024/03/16 11:15:47;;;;;;;5.30;1.95;;;9.70;99.90;;;;;;5029254;28;20021;-75
2024/03/16 11:18:16;;;;;;;7.68;2.22;;;9.60;99.90;;;;;;5029335;28;20029;-76
2024/03/16 11:20:53;;;;;;;4.45;1.40;;;9.70;99.90;;;;;;5046716;28;20040;-76
2024/03/16 11:23:31;;;;;;;2.92;1.25;;;9.70;99.90;;;;;;5029689;28;20296;-76
2024/03/16 11:26:00;;;;;;;2.65;1.25;;;9.60;99.90;;;;;;5029049;28;20033;-76
2024/03/16 11:28:27;;;;;;;6.28;1.77;;;9.70;99.90;;;;;;5029725;28;20222;-76
2024/03/16 11:30:53;;;;;;;3.15;1.42;;;9.80;99.90;;;;;;5029209;28;20026;-76
2024/03/16 11:33:22;;;;;;;2.35;1.42;;;9.90;99.90;;;;;;5028795;28;20034;-76
2024/03/16 11:35:49;;;;;;;5.63;1.73;;;9.90;99.90;;;;;;5029005;28;20027;-76
2024/03/16 11:38:15;;;;;;;3.08;1.30;;;10.00;99.90;;;;;;5012420;28;20037;-77
2024/03/16 11:40:44;;;;;;;5.32;1.70;;;10.00;99.90;;;;;;5029048;28;20064;-76
2024/03/16 11:43:11;;;;;;;4.50;1.60;;;9.90;99.90;;;;;;5028940;28;20022;-76
2024/03/16 11:45:39;;;;;;;2.17;1.38;;;9.90;99.90;;;;;;5027959;28;20278;-76
2024/03/16 11:48:05;;;;;;;4.30;1.33;;;9.90;99.90;;;;;;5012408;28;20041;-76
2024/03/16 11:50:31;;;;;;;2.72;1.20;;;9.90;99.90;;;;;;5028541;28;20190;-75
2024/03/16 11:52:57;;;;;;;4.93;1.50;;;9.90;99.90;;;;;;5028514;28;20085;-75
2024/03/16 11:55:23;;;;;;;3.78;1.70;;;9.90;99.90;;;;;;5028265;28;20191;-75
2024/03/16 11:57:48;;;;;;;3.10;1.20;;;10.00;99.90;;;;;;5027789;28;20101;-75
2024/03/16 12:00:17;;;;;;;3.97;1.42;;;10.00;99.90;;;;;;5012028;28;20029;-76
2024/03/16 12:02:44;;;;;;;3.85;1.33;;;10.00;99.90;;;;;;5046298;28;20026;-75
2024/03/16 12:05:09;;;;;;;4.95;1.75;;;10.00;99.90;;;;;;5027871;28;20036;-75
2024/03/16 12:07:35;;;;;;;3.13;1.70;;;10.10;99.90;;;;;;5028486;28;20029;-75
2024/03/16 12:10:03;;;;;;;2.42;1.23;;;10.10;99.90;;;;;;5045833;28;20179;-75
2024/03/16 12:12:30;;;;;;;4.97;1.40;;;10.10;99.90;;;;;;5011799;28;20092;-75
2024/03/16 12:15:19;;;;;;;2.88;1.50;;;10.10;99.90;;;;;;5028180;28;20057;-74
2024/03/16 12:17:45;;;;;;;2.57;1.57;;;10.10;99.90;;;;;;5012507;28;20033;-74
2024/03/16 12:20:11;;;;;;;3.88;1.35;;;10.10;99.90;;;;;;5028046;28;20102;-75
2024/03/16 12:22:43;;;;;;;5.05;1.75;;;10.10;99.90;;;;;;5028421;28;20021;-75
2024/03/16 12:25:12;;;;;;;3.45;1.27;;;10.10;99.90;;;;;;5028150;28;20041;-74
2024/03/16 12:27:39;;;;;;;3.35;1.23;;;10.10;99.90;;;;;;5028205;28;20029;-74
2024/03/16 12:30:05;;;;;;;3.83;1.30;;;10.20;99.90;;;;;;5028358;28;20013;-75
2024/03/16 12:32:32;;;;;;;2.90;1.20;;;10.10;99.90;;;;;;5028484;28;20176;-75
2024/03/16 12:34:58;;;;;;;4.50;1.77;;;10.10;99.90;;;;;;5045887;28;20017;-75
2024/03/16 12:37:24;;;;;;;3.58;1.33;;;10.20;99.90;;;;;;5027955;28;20022;-75
2024/03/16 12:39:49;;;;;;;2.72;1.30;;;10.20;99.90;;;;;;5045220;28;20111;-75
2024/03/16 12:42:15;;;;;;;5.78;2.00;;;10.20;99.90;;;;;;5045517;28;20052;-75
2024/03/16 12:44:43;;;;;;;3.63;1.40;;;10.30;99.90;;;;;;5028028;28;20025;-76
2024/03/16 12:47:10;;;;;;;1.75;1.13;;;10.30;99.90;;;;;;5011743;28;20107;-76
2024/03/16 12:49:36;;;;;;;4.20;1.40;;;10.30;99.90;;;;;;5011800;28;20033;-75